Accueil
METAR-TAF:

METAR-TAF

Aéroports :

Aéroport de Milan-Linate

Milan, Italie

latitude: 45-26N, longitude: 009-17E, altitude: 107 m

Observation

Le bulletin a été fait il y a 14 minutes, à 12:20 UTC
Vent 7 kt de est/sud-est, variant entre est et sud/sud-est
Température 17°C
Humidité 48%
Pression 1011 hPa
Visibilité 10 km ou plus
Quelques nuages à une hauteur de 5000 ft

METAR: LIML 021220Z 12007KT 080V160 9999 FEW050 17/06 Q1011 NOSIG

Heure: 14:34 (12:34 UTC)

Prévision

Le bulletin a été fait il y a 1 heure et 34 minutes, à 11:00 UTC
Prévision valable du 02 à 12 UTC au 03 à 12 UTC
Vent 10 kt de sud-est
Visibilité 10 km ou plus
Quelques nuages à une hauteur de 4000 ft
Evoluant progressivement
du 02 à 14 UTC au 02 à 16 UTC
Vent 5 kt de direction variable
Evoluant progressivement
du 03 à 06 UTC au 03 à 08 UTC
Vent 11 kt de est/sud-est

TAF: LIML 021100Z 0212/0312 14010KT 9999 FEW040 BECMG 0214/0216 VRB05KT BECMG 0306/0308 12011KT

Observations et prévisions météorologiques de plus de 4000 aéroports (messages METAR et TAF).

Les stations disponibles sont représentées par des disques jaunes et rouges sur la carte.

Passer la souris dessus pour voir le nom de la station.

Cliquer dessus pour voir les observations et prévisions météorologiques.

Pour changer de carte: cliquez sur les boutons verts avec une croix noire pour zoomer, sur le bouton vert avec un tiret pour effectuer un zoom arrière, ou sur les flèches vertes pour les cartes adjacentes.


METAR-TAF: